Dayton, Ohio
Current Conditions -  °F | °C
As of 7:58 AM on Thursday 30 Oct 2014 (Local Time) from KFFO Reporting Station
Overcast Overcast  
Wind Chill:   Ceiling: 4000
Heat Index:   Visibility: 10mi
Dew Point:   Wind: 5mph
Humidity: 75%   Direction: 320°NW
Pressure: 30.15"   Gusts: NA
Location:  39.76°N, 84.19°W
Report Text: KFFO 301158Z AUTO 32004KT 10SM OVC040 06/02 A3015 RMK AO2 SLP217 T00610019 10070 20060 50008
Loading
Personal Weather Stations






























Interactive Weather Map
Tropical Storm Tracking
New forecast layout! Learn more

10-Day Weather Forecast

Advertisements
Track Severe Weather on mobile